Time;durP1;ratioP1;P1;durP2;ratioP2;P2;SDS_P1;SDS_P2;PMS_P1;PMS_P2;Temp;Humidity;BMP_temperature;BMP_pressure;BME280_temperature;BME280_humidity;BME280_pressure;Samples;Min_cycle;Max_cycle;Signal;HPM_P1;HPM_P2
2022/01/06 00:01:38;;;;;;;17.20;2.42;;;3.90;99.90;;;;;;5055803;28;20123;-72
2022/01/06 00:04:04;;;;;;;19.35;3.17;;;3.80;99.90;;;;;;5056492;28;20127;-71
2022/01/06 00:06:30;;;;;;;16.67;2.17;;;3.80;99.90;;;;;;5056492;28;20050;-72
2022/01/06 00:08:57;;;;;;;13.43;1.70;;;3.70;99.90;;;;;;5056182;28;20048;-72
2022/01/06 00:11:24;;;;;;;17.13;2.50;;;3.70;99.90;;;;;;5055977;28;20048;-71
2022/01/06 00:14:03;;;;;;;16.77;2.67;;;3.70;99.90;;;;;;5056216;28;20379;-71
2022/01/06 00:17:00;;;;;;;19.60;2.50;;;3.80;99.90;;;;;;5056700;28;20086;-73
2022/01/06 00:24:53;;;;;;;13.73;2.05;;;3.80;99.90;;;;;;5036029;28;20525;-72
2022/01/06 00:27:20;;;;;;;22.05;2.50;;;3.70;99.90;;;;;;5036093;28;20084;-72
2022/01/06 00:29:46;;;;;;;15.75;2.20;;;3.80;99.90;;;;;;5036001;28;20049;-72
2022/01/06 00:32:12;;;;;;;15.98;2.28;;;3.70;99.90;;;;;;5035816;28;20062;-73
2022/01/06 00:34:37;;;;;;;10.15;2.10;;;3.70;99.90;;;;;;5036380;28;20053;-72
2022/01/06 00:37:03;;;;;;;13.82;2.70;;;3.70;99.90;;;;;;5037965;28;20149;-72
2022/01/06 00:39:29;;;;;;;11.13;1.70;;;3.80;99.90;;;;;;5055448;28;20040;-73
2022/01/06 00:41:58;;;;;;;15.07;1.85;;;3.70;99.90;;;;;;5055976;28;20048;-71
2022/01/06 00:44:23;;;;;;;15.05;2.65;;;3.70;99.90;;;;;;5055905;28;20174;-72
2022/01/06 00:46:50;;;;;;;17.67;2.63;;;3.80;99.90;;;;;;5055441;28;20127;-72
2022/01/06 00:49:20;;;;;;;17.67;2.35;;;3.70;99.90;;;;;;5055728;28;20040;-71
2022/01/06 00:51:46;;;;;;;13.60;2.08;;;3.80;99.90;;;;;;5055785;28;20048;-73
2022/01/06 00:54:12;;;;;;;19.95;2.60;;;3.70;99.90;;;;;;5056109;28;20123;-72
2022/01/06 00:56:38;;;;;;;15.50;2.03;;;3.70;99.90;;;;;;5055132;28;20505;-72
2022/01/06 00:59:04;;;;;;;25.80;2.83;;;3.70;99.90;;;;;;5055463;28;20041;-72
2022/01/06 01:01:30;;;;;;;14.25;2.65;;;3.70;99.90;;;;;;5055212;28;20048;-72
2022/01/06 01:03:56;;;;;;;11.85;2.08;;;3.70;99.90;;;;;;5055648;28;20051;-73
2022/01/06 01:06:22;;;;;;;14.68;2.25;;;3.70;99.90;;;;;;5055521;28;20040;-71
2022/01/06 01:08:47;;;;;;;14.25;2.22;;;3.70;99.90;;;;;;5055051;28;20123;-72
2022/01/06 01:11:13;;;;;;;15.55;3.45;;;3.60;99.90;;;;;;5055596;28;20048;-72
2022/01/06 01:13:55;;;;;;;17.63;2.67;;;3.60;99.90;;;;;;5055451;28;20067;-72
2022/01/06 01:16:28;;;;;;;25.55;2.92;;;3.60;99.90;;;;;;5037761;28;20587;-72
2022/01/06 01:18:56;;;;;;;19.83;3.33;;;3.60;99.90;;;;;;5055355;28;20052;-72
2022/01/06 01:21:26;;;;;;;26.95;2.85;;;3.60;99.90;;;;;;5055201;28;20394;-73
2022/01/06 01:23:56;;;;;;;20.70;3.08;;;3.60;99.90;;;;;;5038924;28;20072;-71
2022/01/06 01:26:22;;;;;;;15.45;2.70;;;3.50;99.90;;;;;;5055292;28;20040;-71
2022/01/06 01:28:50;;;;;;;21.40;2.58;;;3.50;99.90;;;;;;5054956;28;20094;-72
2022/01/06 01:31:25;;;;;;;17.90;2.75;;;3.50;99.90;;;;;;5056053;28;20047;-72
2022/01/06 01:33:55;;;;;;;22.92;2.88;;;3.40;99.90;;;;;;5055344;28;20475;-72
2022/01/06 01:36:21;;;;;;;18.23;2.58;;;3.50;99.90;;;;;;5055336;28;20113;-73
2022/01/06 01:38:47;;;;;;;26.67;3.03;;;3.40;99.90;;;;;;5038274;28;20048;-72
2022/01/06 01:41:13;;;;;;;25.10;3.30;;;3.40;99.90;;;;;;5055050;28;20454;-72
2022/01/06 01:43:39;;;;;;;16.83;2.67;;;3.50;99.90;;;;;;5038753;28;20047;-72
2022/01/06 01:46:14;;;;;;;17.33;3.00;;;3.50;99.90;;;;;;5055170;28;20544;-71
2022/01/06 01:48:46;;;;;;;20.58;3.42;;;3.40;99.90;;;;;;5051332;28;20127;-72
2022/01/06 01:51:12;;;;;;;21.98;2.90;;;3.40;99.90;;;;;;5049223;28;20550;-71
2022/01/06 01:53:38;;;;;;;23.30;3.78;;;3.40;99.90;;;;;;5054792;28;20132;-72
2022/01/06 01:56:10;;;;;;;24.45;3.20;;;3.40;99.90;;;;;;5055550;28;20044;-72
2022/01/06 01:58:37;;;;;;;25.38;3.33;;;3.40;99.90;;;;;;5054807;28;20044;-71
2022/01/06 02:01:04;;;;;;;27.13;3.65;;;3.40;99.90;;;;;;5038464;28;20529;-72
2022/01/06 02:03:29;;;;;;;22.13;3.00;;;3.30;99.90;;;;;;5055028;28;20041;-72
2022/01/06 02:05:55;;;;;;;21.48;2.90;;;3.40;99.90;;;;;;5055035;28;20098;-72
2022/01/06 02:08:21;;;;;;;19.08;2.47;;;3.30;99.90;;;;;;5054589;28;20047;-72
2022/01/06 02:10:47;;;;;;;22.67;3.40;;;3.30;99.90;;;;;;5058185;28;20044;-71
2022/01/06 02:13:13;;;;;;;22.48;3.20;;;3.30;99.90;;;;;;5037456;28;20037;-73
2022/01/06 02:15:39;;;;;;;21.95;3.65;;;3.30;99.90;;;;;;5030485;28;20135;-71
2022/01/06 02:18:04;;;;;;;28.58;3.33;;;3.30;99.90;;;;;;5058565;28;20119;-73
2022/01/06 02:20:30;;;;;;;25.52;3.42;;;3.30;99.90;;;;;;5058631;28;20414;-71
2022/01/06 02:22:56;;;;;;;17.55;3.75;;;3.30;99.90;;;;;;5057709;28;20440;-72
2022/01/06 02:25:31;;;;;;;26.52;3.03;;;3.20;99.90;;;;;;5059089;28;20527;-73
2022/01/06 02:28:00;;;;;;;22.33;3.63;;;3.20;99.90;;;;;;5058271;28;20060;-73
2022/01/06 02:30:26;;;;;;;22.77;3.28;;;3.20;99.90;;;;;;5057869;28;20086;-72
2022/01/06 02:32:53;;;;;;;31.42;4.13;;;3.20;99.90;;;;;;5058289;28;20040;-72
2022/01/06 02:35:22;;;;;;;27.30;3.47;;;3.20;99.90;;;;;;5057973;28;20036;-71
2022/01/06 02:37:48;;;;;;;18.20;3.33;;;3.20;99.90;;;;;;5058375;28;20036;-71
2022/01/06 02:40:23;;;;;;;25.48;3.70;;;3.20;99.90;;;;;;5058103;28;20105;-72
2022/01/06 02:42:52;;;;;;;17.52;2.92;;;3.20;99.90;;;;;;5057864;28;20145;-72
2022/01/06 02:45:20;;;;;;;22.02;4.05;;;3.20;99.90;;;;;;5057898;28;20486;-72
2022/01/06 02:47:47;;;;;;;20.92;3.63;;;3.20;99.90;;;;;;5054025;28;20033;-71
2022/01/06 02:50:14;;;;;;;25.17;3.28;;;3.20;99.90;;;;;;5037321;28;20041;-72
2022/01/06 02:52:40;;;;;;;26.20;3.13;;;3.20;99.90;;;;;;5022028;28;20049;-72
2022/01/06 02:55:08;;;;;;;30.08;3.67;;;3.20;99.90;;;;;;5013964;28;20361;-72
2022/01/06 02:57:34;;;;;;;20.80;3.00;;;3.20;99.90;;;;;;4997342;28;20059;-73
2022/01/06 03:00:00;;;;;;;20.50;2.80;;;3.20;99.90;;;;;;5013390;28;20042;-73
2022/01/06 03:02:27;;;;;;;20.63;2.95;;;3.20;99.90;;;;;;5013101;28;20096;-72
2022/01/06 03:04:53;;;;;;;20.08;3.30;;;3.20;99.90;;;;;;5013597;28;20046;-72
2022/01/06 03:07:18;;;;;;;31.80;3.55;;;3.20;99.90;;;;;;5009536;28;20103;-72
2022/01/06 03:09:51;;;;;;;17.95;2.63;;;3.10;99.90;;;;;;5016560;28;20426;-72
2022/01/06 03:12:59;;;;;;;28.98;3.22;;;3.10;99.90;;;;;;5016846;28;20045;-71
2022/01/06 03:15:10;;;;;;;22.80;3.70;;;3.10;99.90;;;;;;5006073;28;20252;-72
2022/01/06 03:17:38;;;;;;;20.92;2.92;;;3.10;99.90;;;;;;5016680;28;20432;-71
2022/01/06 03:20:06;;;;;;;24.65;3.22;;;3.00;99.90;;;;;;5000273;28;20048;-73
2022/01/06 03:22:32;;;;;;;20.65;2.90;;;3.00;99.90;;;;;;5016492;28;20049;-72
2022/01/06 03:24:58;;;;;;;18.88;2.78;;;3.00;99.90;;;;;;5000061;28;20059;-72
2022/01/06 03:27:23;;;;;;;22.88;3.08;;;3.00;99.90;;;;;;4999943;28;20093;-71
2022/01/06 03:29:50;;;;;;;20.40;3.00;;;3.00;99.90;;;;;;5016174;28;20120;-71
2022/01/06 03:32:17;;;;;;;23.25;3.08;;;3.00;99.90;;;;;;5032791;28;20048;-72
2022/01/06 03:34:43;;;;;;;18.55;2.88;;;3.00;99.90;;;;;;5040655;28;20044;-71
2022/01/06 03:37:10;;;;;;;19.60;3.08;;;3.00;99.90;;;;;;5056236;28;20466;-72
2022/01/06 03:39:36;;;;;;;22.40;2.83;;;3.00;99.90;;;;;;5055813;28;20044;-72
2022/01/06 03:42:01;;;;;;;23.33;3.63;;;3.00;99.90;;;;;;5036801;28;20131;-72
2022/01/06 03:44:27;;;;;;;23.55;3.50;;;3.00;99.90;;;;;;5053885;28;20163;-72
2022/01/06 03:46:53;;;;;;;27.35;3.58;;;3.00;99.90;;;;;;5037170;28;20448;-72
2022/01/06 03:49:19;;;;;;;18.73;3.05;;;2.90;99.90;;;;;;5020105;28;20075;-72
2022/01/06 03:51:45;;;;;;;24.85;3.47;;;2.90;99.90;;;;;;5053419;28;20037;-72
2022/01/06 03:54:11;;;;;;;22.67;2.90;;;2.90;99.90;;;;;;5053325;28;20044;-72
2022/01/06 03:56:37;;;;;;;23.13;3.88;;;2.90;99.90;;;;;;5053110;28;20434;-72
2022/01/06 03:59:03;;;;;;;24.00;3.60;;;2.80;99.90;;;;;;5031925;28;20050;-72
2022/01/06 04:01:29;;;;;;;20.90;3.22;;;2.70;99.90;;;;;;5000288;28;20048;-72
2022/01/06 04:03:54;;;;;;;23.00;3.17;;;2.80;99.90;;;;;;5000846;28;20045;-73
2022/01/06 04:06:20;;;;;;;25.80;3.20;;;2.70;99.90;;;;;;5035912;28;20036;-72
2022/01/06 04:08:46;;;;;;;25.27;3.05;;;2.70;99.90;;;;;;5036422;28;20037;-72
2022/01/06 04:11:11;;;;;;;19.60;2.88;;;2.70;99.90;;;;;;5036066;28;20384;-71
2022/01/06 04:13:37;;;;;;;15.93;2.75;;;2.60;99.90;;;;;;5036377;28;20052;-72
2022/01/06 04:16:07;;;;;;;18.58;2.72;;;2.70;99.90;;;;;;5019621;28;20075;-72
2022/01/06 04:18:33;;;;;;;23.35;4.00;;;2.60;99.90;;;;;;5036147;28;20383;-72
2022/01/06 04:20:59;;;;;;;25.00;2.95;;;2.60;99.90;;;;;;5036190;28;20040;-72
2022/01/06 04:23:25;;;;;;;18.73;2.38;;;2.60;99.90;;;;;;5036019;28;20072;-72
2022/01/06 04:25:50;;;;;;;24.10;3.67;;;2.60;99.90;;;;;;5035866;28;20561;-71
2022/01/06 04:28:16;;;;;;;22.25;3.53;;;2.60;99.90;;;;;;5035762;28;20049;-72
2022/01/06 04:30:42;;;;;;;20.45;2.78;;;2.50;99.90;;;;;;5036049;28;20040;-72
2022/01/06 04:33:07;;;;;;;18.05;2.63;;;2.60;99.90;;;;;;5035474;28;20067;-73
2022/01/06 04:35:33;;;;;;;20.58;3.10;;;2.50;99.90;;;;;;5035792;28;20082;-72
2022/01/06 04:37:59;;;;;;;20.58;2.72;;;2.50;99.90;;;;;;5036129;28;20098;-72
2022/01/06 04:40:24;;;;;;;18.55;3.00;;;2.50;99.90;;;;;;5035689;28;20379;-72
2022/01/06 04:42:50;;;;;;;15.75;2.83;;;2.50;99.90;;;;;;5036450;28;20088;-72
2022/01/06 04:45:16;;;;;;;18.73;2.90;;;2.40;99.90;;;;;;5019775;28;20131;-74
2022/01/06 04:47:41;;;;;;;17.85;2.70;;;2.30;99.90;;;;;;5036031;28;20125;-72
2022/01/06 04:50:07;;;;;;;16.30;3.08;;;2.30;99.90;;;;;;5035611;28;20087;-72
2022/01/06 04:52:33;;;;;;;13.27;2.60;;;2.20;99.90;;;;;;5035936;28;20048;-73
2022/01/06 04:54:58;;;;;;;15.43;2.42;;;2.20;99.90;;;;;;5035638;28;20037;-72
2022/01/06 04:57:24;;;;;;;14.02;2.45;;;2.10;99.90;;;;;;5034776;28;20056;-73
2022/01/06 04:59:50;;;;;;;25.45;2.50;;;2.10;99.90;;;;;;5029427;28;20059;-72
2022/01/06 05:02:16;;;;;;;16.58;2.35;;;2.00;99.90;;;;;;5055716;28;20144;-71
2022/01/06 05:04:41;;;;;;;14.75;2.40;;;2.00;99.90;;;;;;5055215;28;20033;-72
2022/01/06 05:07:07;;;;;;;16.83;2.92;;;1.90;99.90;;;;;;5038866;28;20101;-72
2022/01/06 05:09:33;;;;;;;13.02;2.28;;;1.90;99.90;;;;;;5038800;28;20125;-73
2022/01/06 05:11:59;;;;;;;24.15;2.80;;;1.90;99.90;;;;;;5054906;28;20363;-72
2022/01/06 05:14:24;;;;;;;23.88;2.75;;;1.80;99.90;;;;;;5055755;28;20470;-73
2022/01/06 05:16:50;;;;;;;12.93;2.60;;;1.80;99.90;;;;;;5055777;28;20065;-73
2022/01/06 05:19:16;;;;;;;11.73;2.40;;;1.70;99.90;;;;;;5055836;28;20044;-72
2022/01/06 05:21:42;;;;;;;14.98;2.63;;;1.70;99.90;;;;;;5038783;28;20044;-74
2022/01/06 05:24:14;;;;;;;16.15;2.40;;;1.70;99.90;;;;;;5055274;28;20052;-72
2022/01/06 05:26:40;;;;;;;20.17;2.85;;;1.60;99.90;;;;;;5038577;28;20043;-73
2022/01/06 05:29:08;;;;;;;17.98;2.60;;;1.60;99.90;;;;;;5054073;28;20379;-73
2022/01/06 05:31:33;;;;;;;17.52;3.10;;;1.60;99.90;;;;;;5038512;28;20041;-72
2022/01/06 05:33:59;;;;;;;14.88;2.50;;;1.50;99.90;;;;;;5055347;28;20433;-73
2022/01/06 05:36:25;;;;;;;16.17;2.20;;;1.50;99.90;;;;;;5038702;28;20131;-73
2022/01/06 05:38:50;;;;;;;14.23;2.60;;;1.40;99.90;;;;;;5054891;28;20131;-73
2022/01/06 05:41:16;;;;;;;12.63;2.38;;;1.40;99.90;;;;;;5038377;28;20072;-73
2022/01/06 05:43:41;;;;;;;14.50;1.85;;;1.40;99.90;;;;;;5056653;28;20583;-73
2022/01/06 05:46:07;;;;;;;11.15;2.10;;;1.40;99.90;;;;;;5042499;28;20386;-72
2022/01/06 05:48:33;;;;;;;13.68;2.08;;;1.30;99.90;;;;;;5059176;28;20323;-72
2022/01/06 05:50:58;;;;;;;13.40;2.22;;;1.30;99.90;;;;;;5042408;28;20032;-73
2022/01/06 05:53:24;;;;;;;16.88;2.33;;;1.30;99.90;;;;;;5058811;28;20033;-72
2022/01/06 05:55:50;;;;;;;19.20;2.50;;;1.20;99.90;;;;;;5058654;28;20094;-73
2022/01/06 05:58:16;;;;;;;15.82;2.40;;;1.20;99.90;;;;;;5058905;28;20482;-73
2022/01/06 06:00:42;;;;;;;19.15;2.97;;;1.20;99.90;;;;;;5040516;28;20403;-72
2022/01/06 06:03:08;;;;;;;13.07;2.30;;;1.10;99.90;;;;;;5038683;28;20051;-72
2022/01/06 06:05:34;;;;;;;15.10;2.65;;;1.10;99.90;;;;;;5038622;28;20029;-73
2022/01/06 06:07:59;;;;;;;14.10;2.50;;;1.10;99.90;;;;;;5022165;28;20037;-72
2022/01/06 06:10:25;;;;;;;15.82;2.25;;;1.10;99.90;;;;;;5038253;28;20040;-74
2022/01/06 06:12:52;;;;;;;17.58;3.28;;;1.10;99.90;;;;;;5038899;28;20037;-74
2022/01/06 06:15:20;;;;;;;19.63;3.83;;;1.00;99.90;;;;;;5038749;28;20063;-73
2022/01/06 06:17:46;;;;;;;21.83;3.22;;;1.10;99.90;;;;;;5038101;28;20455;-72
2022/01/06 06:20:12;;;;;;;12.43;2.92;;;1.10;99.90;;;;;;5038337;28;20041;-73
2022/01/06 06:22:38;;;;;;;12.18;2.05;;;1.10;99.90;;;;;;5038238;28;20479;-73
2022/01/06 06:25:05;;;;;;;20.55;3.22;;;1.00;99.90;;;;;;5021371;28;20068;-73
2022/01/06 06:27:30;;;;;;;13.68;2.83;;;1.00;99.90;;;;;;5038630;28;20405;-72
2022/01/06 06:29:56;;;;;;;16.85;3.33;;;1.00;99.90;;;;;;5038481;28;20029;-73
2022/01/06 06:32:22;;;;;;;18.02;2.72;;;1.00;99.90;;;;;;5038083;28;20453;-72
2022/01/06 06:34:47;;;;;;;19.90;3.53;;;1.00;99.90;;;;;;5038298;28;20059;-73
2022/01/06 06:37:13;;;;;;;21.83;2.88;;;1.00;99.90;;;;;;5038008;28;20051;-73
2022/01/06 06:39:39;;;;;;;16.30;2.97;;;1.00;99.90;;;;;;5037883;28;20055;-73
2022/01/06 06:42:05;;;;;;;20.85;2.70;;;1.00;99.90;;;;;;5021959;28;20119;-73
2022/01/06 06:44:30;;;;;;;10.32;2.30;;;1.00;99.90;;;;;;5037809;28;20037;-72
2022/01/06 06:46:56;;;;;;;21.35;3.40;;;0.90;99.90;;;;;;5034457;28;20034;-73
2022/01/06 06:49:22;;;;;;;19.77;3.03;;;0.90;99.90;;;;;;5018008;28;20037;-72
2022/01/06 06:51:48;;;;;;;17.05;2.80;;;0.90;99.90;;;;;;5018182;28;20124;-72
2022/01/06 06:54:13;;;;;;;13.20;2.35;;;0.90;99.90;;;;;;5000883;28;20084;-72
2022/01/06 06:56:41;;;;;;;16.38;2.42;;;0.90;99.90;;;;;;5002007;28;20049;-73
2022/01/06 06:59:06;;;;;;;15.00;2.38;;;0.80;99.90;;;;;;5006384;28;20084;-73
2022/01/06 07:01:32;;;;;;;11.00;2.30;;;0.80;99.90;;;;;;5037954;28;20045;-73
2022/01/06 07:03:58;;;;;;;15.70;2.47;;;0.80;99.90;;;;;;5037730;28;20055;-73
2022/01/06 07:06:23;;;;;;;15.50;2.83;;;0.80;99.90;;;;;;5037455;28;20383;-74
2022/01/06 07:08:49;;;;;;;16.23;2.80;;;0.80;99.90;;;;;;5036861;28;20072;-73
2022/01/06 07:11:15;;;;;;;17.30;2.40;;;0.70;99.90;;;;;;5038157;28;20472;-74
2022/01/06 07:13:40;;;;;;;14.57;1.95;;;0.70;99.90;;;;;;5037444;28;20060;-74
2022/01/06 07:16:06;;;;;;;19.70;2.88;;;0.70;99.90;;;;;;5049727;28;20471;-73
2022/01/06 07:18:31;;;;;;;17.10;2.58;;;0.60;99.90;;;;;;5056416;28;20360;-73
2022/01/06 07:20:57;;;;;;;17.75;2.75;;;0.60;99.90;;;;;;5056776;28;20427;-73
2022/01/06 07:23:23;;;;;;;13.23;2.75;;;0.60;99.90;;;;;;5057143;28;20467;-73
2022/01/06 07:25:49;;;;;;;14.68;2.72;;;0.60;99.90;;;;;;5040803;28;20036;-73
2022/01/06 07:28:14;;;;;;;10.57;2.78;;;0.60;99.90;;;;;;5057409;28;20043;-73
2022/01/06 07:30:40;;;;;;;16.05;2.92;;;0.60;99.90;;;;;;5040306;28;20036;-74
2022/01/06 07:33:06;;;;;;;17.98;2.80;;;0.60;99.90;;;;;;5057147;28;20036;-73
2022/01/06 07:35:32;;;;;;;23.52;3.88;;;0.50;99.90;;;;;;5056978;28;20063;-73
2022/01/06 07:37:57;;;;;;;13.77;2.53;;;0.50;99.90;;;;;;5056695;28;20041;-74
2022/01/06 07:40:23;;;;;;;15.05;2.92;;;0.50;99.90;;;;;;5057085;28;20079;-73
2022/01/06 07:42:50;;;;;;;20.02;3.15;;;0.50;99.90;;;;;;5056622;28;20048;-74
2022/01/06 07:45:16;;;;;;;17.92;3.20;;;0.50;99.90;;;;;;5055297;28;20028;-73
2022/01/06 07:47:54;;;;;;;22.80;3.80;;;0.50;99.90;;;;;;5056991;28;20040;-73
2022/01/06 07:50:22;;;;;;;14.77;2.80;;;0.40;99.90;;;;;;5039361;28;20072;-73
2022/01/06 07:52:48;;;;;;;16.90;2.75;;;0.50;99.90;;;;;;5040517;28;20052;-75
2022/01/06 07:55:13;;;;;;;15.55;2.58;;;0.40;99.90;;;;;;5057097;28;20386;-73
2022/01/06 07:57:39;;;;;;;15.73;2.70;;;0.40;99.90;;;;;;5056414;28;20481;-74
2022/01/06 08:00:05;;;;;;;17.90;3.03;;;0.50;99.90;;;;;;5043816;28;20048;-74
2022/01/06 08:02:31;;;;;;;15.95;2.67;;;0.50;99.90;;;;;;5036605;28;20044;-73
2022/01/06 08:04:56;;;;;;;17.25;2.63;;;0.50;99.90;;;;;;5036161;28;20102;-74
2022/01/06 08:07:22;;;;;;;21.10;3.50;;;0.40;99.90;;;;;;5019467;28;20041;-74
2022/01/06 08:09:48;;;;;;;17.42;2.30;;;0.50;99.90;;;;;;5020034;28;20072;-74
2022/01/06 08:12:13;;;;;;;19.95;2.95;;;0.50;99.90;;;;;;5036775;28;20043;-73
2022/01/06 08:14:39;;;;;;;19.17;2.90;;;0.50;99.90;;;;;;5019373;28;20054;-74
2022/01/06 08:17:05;;;;;;;20.77;3.42;;;0.50;99.90;;;;;;5032406;28;20046;-73
2022/01/06 08:19:30;;;;;;;15.32;2.88;;;0.60;99.90;;;;;;5019407;28;20475;-72
2022/01/06 08:21:56;;;;;;;19.25;2.72;;;0.60;99.90;;;;;;5019930;28;20451;-73
2022/01/06 08:24:22;;;;;;;17.52;2.92;;;0.60;99.90;;;;;;5036778;28;20174;-75
2022/01/06 08:26:50;;;;;;;25.85;3.30;;;0.70;99.90;;;;;;5019949;28;20128;-73
2022/01/06 08:29:16;;;;;;;17.55;3.22;;;0.70;99.90;;;;;;5036024;28;20544;-73
2022/01/06 08:31:41;;;;;;;28.50;4.05;;;0.70;99.90;;;;;;5035935;28;20033;-74
2022/01/06 08:34:07;;;;;;;26.05;4.22;;;0.70;99.90;;;;;;5035829;28;20101;-73
2022/01/06 08:36:33;;;;;;;27.80;4.70;;;0.80;99.90;;;;;;5035711;28;20048;-73
2022/01/06 08:38:58;;;;;;;24.30;3.90;;;0.80;99.90;;;;;;5035916;28;20494;-73
2022/01/06 08:41:24;;;;;;;25.42;3.40;;;0.80;99.90;;;;;;5036409;28;20041;-74
2022/01/06 08:43:49;;;;;;;22.02;3.58;;;0.80;99.90;;;;;;5032666;28;20049;-73
2022/01/06 08:46:15;;;;;;;20.85;3.70;;;0.80;99.90;;;;;;5016461;28;20384;-74
2022/01/06 08:48:41;;;;;;;21.50;3.60;;;0.80;99.90;;;;;;5034793;28;20090;-73
2022/01/06 08:51:06;;;;;;;25.23;4.05;;;0.90;99.90;;;;;;5035325;28;20048;-74
2022/01/06 08:53:32;;;;;;;19.35;3.97;;;0.90;99.90;;;;;;5036050;28;20110;-74
2022/01/06 08:55:58;;;;;;;21.23;3.65;;;1.00;99.90;;;;;;5019446;28;20094;-74
2022/01/06 08:58:23;;;;;;;25.80;3.88;;;1.00;99.90;;;;;;5036039;28;20033;-74
2022/01/06 09:00:49;;;;;;;34.15;6.65;;;1.00;99.90;;;;;;5053828;28;20056;-73
2022/01/06 09:03:15;;;;;;;38.72;9.98;;;1.10;99.90;;;;;;5055131;28;20037;-73
2022/01/06 09:05:40;;;;;;;33.50;9.32;;;1.10;99.90;;;;;;5054673;28;20041;-73
2022/01/06 09:08:07;;;;;;;32.60;7.13;;;1.10;99.90;;;;;;5049218;28;20063;-73
2022/01/06 09:10:34;;;;;;;26.63;6.05;;;1.20;99.90;;;;;;5038178;28;20072;-74
2022/01/06 09:13:05;;;;;;;28.95;6.20;;;1.20;99.90;;;;;;5054265;28;20054;-74
2022/01/06 09:15:31;;;;;;;29.60;5.95;;;1.30;99.90;;;;;;5055601;28;20124;-73
2022/01/06 09:17:57;;;;;;;27.10;5.30;;;1.30;99.90;;;;;;5040163;28;20080;-74
2022/01/06 09:20:23;;;;;;;30.20;5.30;;;1.40;99.90;;;;;;5059564;28;20091;-73
2022/01/06 09:22:49;;;;;;;25.70;5.47;;;1.40;99.90;;;;;;5055588;28;20191;-73
2022/01/06 09:25:16;;;;;;;30.15;5.20;;;1.50;99.90;;;;;;5039777;28;20041;-73
2022/01/06 09:27:43;;;;;;;31.13;5.38;;;1.50;99.90;;;;;;5039789;28;20082;-74
2022/01/06 09:30:10;;;;;;;23.27;5.57;;;1.60;99.90;;;;;;5022668;28;20464;-73
2022/01/06 09:32:36;;;;;;;23.80;5.32;;;1.60;99.90;;;;;;5039118;28;20036;-74
2022/01/06 09:35:02;;;;;;;27.15;5.75;;;1.70;99.90;;;;;;5039690;28;20059;-74
2022/01/06 09:37:27;;;;;;;35.20;4.97;;;1.70;99.90;;;;;;5039396;28;20379;-72
2022/01/06 09:39:53;;;;;;;21.77;4.65;;;1.80;99.90;;;;;;5039502;28;20090;-73
2022/01/06 09:42:20;;;;;;;25.70;3.97;;;1.80;99.90;;;;;;5039461;28;20045;-73
2022/01/06 09:44:50;;;;;;;24.33;4.20;;;1.90;99.90;;;;;;5039226;28;20048;-73
2022/01/06 09:47:17;;;;;;;22.95;4.05;;;2.00;99.90;;;;;;5038809;28;20128;-73
2022/01/06 09:49:44;;;;;;;24.13;4.60;;;2.00;99.90;;;;;;5039030;28;20032;-73
2022/01/06 09:52:10;;;;;;;35.60;4.78;;;2.10;99.90;;;;;;5039235;28;20048;-73
2022/01/06 09:54:38;;;;;;;23.00;4.10;;;2.20;99.90;;;;;;5039154;28;20098;-74
2022/01/06 09:57:05;;;;;;;29.48;4.88;;;2.30;99.90;;;;;;5041972;28;20145;-73
2022/01/06 09:59:32;;;;;;;20.90;4.75;;;2.30;99.90;;;;;;5050646;28;20079;-74
2022/01/06 10:01:58;;;;;;;24.85;4.55;;;2.40;99.90;;;;;;5038536;28;20075;-73
2022/01/06 10:04:28;;;;;;;25.08;3.95;;;2.50;99.90;;;;;;5005380;28;20037;-74
2022/01/06 10:07:20;;;;;;;23.75;4.63;;;2.60;99.90;;;;;;5035742;28;20096;-74
2022/01/06 10:09:46;;;;;;;29.27;5.07;;;2.60;99.90;;;;;;5014819;28;20056;-73
2022/01/06 10:12:13;;;;;;;23.20;4.70;;;2.70;99.90;;;;;;5035193;28;20042;-73
2022/01/06 10:14:46;;;;;;;31.35;5.68;;;2.80;99.90;;;;;;5003352;28;20124;-72
2022/01/06 10:17:28;;;;;;;30.77;4.97;;;2.90;99.90;;;;;;5019288;28;20044;-72
2022/01/06 10:19:54;;;;;;;35.58;6.75;;;3.00;99.90;;;;;;5018413;28;20045;-72
2022/01/06 10:22:21;;;;;;;40.67;6.97;;;3.10;99.90;;;;;;5034891;28;20038;-72
2022/01/06 10:24:50;;;;;;;29.77;6.03;;;3.20;99.90;;;;;;5034948;28;20091;-72
2022/01/06 10:27:18;;;;;;;26.17;5.20;;;3.30;99.90;;;;;;5023676;28;20079;-72
2022/01/06 10:29:47;;;;;;;28.13;5.45;;;3.40;99.90;;;;;;5037562;28;20041;-72
2022/01/06 10:32:19;;;;;;;27.42;5.28;;;3.50;99.90;;;;;;5038186;28;20491;-72
2022/01/06 10:34:47;;;;;;;24.05;4.97;;;3.60;99.90;;;;;;5038139;28;20118;-72
2022/01/06 10:37:25;;;;;;;26.33;5.78;;;3.70;99.90;;;;;;5037798;28;20045;-72
2022/01/06 10:39:58;;;;;;;26.73;4.50;;;4.10;99.90;;;;;;5038373;28;20045;-72
2022/01/06 10:42:25;;;;;;;21.48;4.88;;;4.40;99.90;;;;;;5038331;28;20044;-72
2022/01/06 10:44:59;;;;;;;25.77;4.07;;;4.70;99.90;;;;;;5038257;28;20045;-73
2022/01/06 10:47:40;;;;;;;30.48;4.55;;;5.10;99.90;;;;;;5038032;28;20080;-72
2022/01/06 10:50:12;;;;;;;26.20;4.97;;;5.40;99.90;;;;;;5037828;28;20387;-71
2022/01/06 10:52:39;;;;;;;23.45;4.07;;;5.60;99.90;;;;;;5037968;28;20549;-73
2022/01/06 10:55:13;;;;;;;20.23;4.72;;;5.80;99.90;;;;;;5036487;28;20048;-72
2022/01/06 10:57:52;;;;;;;24.33;4.05;;;5.80;99.90;;;;;;5023299;28;20073;-73
2022/01/06 11:00:19;;;;;;;21.48;4.30;;;5.60;99.90;;;;;;5049796;28;20509;-72
2022/01/06 11:02:45;;;;;;;22.80;3.90;;;5.60;99.90;;;;;;5058471;28;20051;-72
2022/01/06 11:05:10;;;;;;;23.42;4.60;;;5.80;99.90;;;;;;5057858;28;20041;-72
2022/01/06 11:07:36;;;;;;;26.92;4.18;;;6.10;99.90;;;;;;5057596;28;20386;-72
2022/01/06 11:10:14;;;;;;;21.10;3.97;;;6.10;99.90;;;;;;5040995;28;20383;-71
2022/01/06 11:12:40;;;;;;;23.17;4.15;;;5.90;99.90;;;;;;5056854;28;20051;-71
2022/01/06 11:15:07;;;;;;;26.90;4.47;;;5.80;99.90;;;;;;5056529;28;20391;-72
2022/01/06 11:17:33;;;;;;;23.67;4.00;;;5.70;99.90;;;;;;5056603;28;20498;-72
2022/01/06 11:19:59;;;;;;;22.75;4.90;;;5.60;99.90;;;;;;5057505;28;20131;-72
2022/01/06 11:22:26;;;;;;;25.73;4.75;;;5.60;99.90;;;;;;5053858;28;20033;-72
2022/01/06 11:24:59;;;;;;;19.55;4.30;;;5.70;99.90;;;;;;5037440;28;20086;-72
2022/01/06 11:27:36;;;;;;;24.67;3.72;;;5.90;99.90;;;;;;5036973;28;20406;-71
2022/01/06 11:30:15;;;;;;;23.45;4.45;;;6.10;99.90;;;;;;5037656;28;20043;-72
2022/01/06 11:32:42;;;;;;;18.48;4.13;;;6.10;99.90;;;;;;5037320;28;20045;-73
2022/01/06 11:35:16;;;;;;;22.38;5.18;;;6.20;99.90;;;;;;5037242;28;20056;-72
2022/01/06 11:37:46;;;;;;;23.70;5.20;;;6.50;99.90;;;;;;5036943;28;20098;-81
2022/01/06 11:40:14;;;;;;;19.65;4.05;;;6.90;99.90;;;;;;5031039;28;20148;-72
2022/01/06 11:42:40;;;;;;;16.77;3.45;;;7.10;99.90;;;;;;5036202;28;20132;-72
2022/01/06 11:45:07;;;;;;;16.45;3.40;;;7.40;99.90;;;;;;5037201;28;20133;-72
2022/01/06 11:47:34;;;;;;;16.58;3.25;;;7.60;99.90;;;;;;5036933;28;20045;-72
2022/01/06 11:50:21;;;;;;;19.58;4.00;;;7.60;99.90;;;;;;5020253;28;20124;-72
2022/01/06 11:52:56;;;;;;;20.77;3.58;;;7.70;99.90;;;;;;5020538;28;20037;-72
2022/01/06 11:55:24;;;;;;;18.60;3.10;;;7.80;99.90;;;;;;5036832;28;20052;-72
2022/01/06 11:57:50;;;;;;;22.27;4.05;;;7.90;99.90;;;;;;5036653;28;20048;-73
2022/01/06 12:00:25;;;;;;;23.75;3.78;;;8.00;99.90;;;;;;5038858;28;20053;-72
2022/01/06 12:03:01;;;;;;;22.70;4.03;;;8.00;99.90;;;;;;5035983;28;20119;-72
2022/01/06 12:05:39;;;;;;;17.63;3.30;;;7.90;99.90;;;;;;5036890;28;20048;-72
2022/01/06 12:08:04;;;;;;;19.00;3.30;;;7.70;99.90;;;;;;5036743;28;20048;-72
2022/01/06 12:10:42;;;;;;;22.85;3.42;;;7.50;99.90;;;;;;5036250;28;20155;-72
2022/01/06 12:13:08;;;;;;;25.60;3.13;;;7.50;99.90;;;;;;5036599;28;20037;-72
2022/01/06 12:15:45;;;;;;;22.75;3.38;;;7.60;99.90;;;;;;5036552;28;20131;-72
2022/01/06 12:18:11;;;;;;;16.40;3.20;;;7.80;99.90;;;;;;5035982;28;20043;-72
2022/01/06 12:20:36;;;;;;;17.05;3.22;;;8.10;99.90;;;;;;5036625;28;20041;-73
2022/01/06 12:23:05;;;;;;;19.35;2.92;;;8.20;99.90;;;;;;5036092;28;20378;-72
2022/01/06 12:25:31;;;;;;;18.00;2.92;;;8.30;99.90;;;;;;5019697;28;20044;-72
2022/01/06 12:27:56;;;;;;;16.75;2.92;;;8.20;99.90;;;;;;5035808;28;20395;-71
2022/01/06 12:30:26;;;;;;;21.40;3.58;;;8.10;99.90;;;;;;5036209;28;20083;-72
2022/01/06 12:33:00;;;;;;;15.70;3.10;;;7.90;99.90;;;;;;5036280;28;20086;-72
2022/01/06 12:35:37;;;;;;;20.80;2.85;;;7.90;99.90;;;;;;5036457;28;20087;-72
2022/01/06 12:38:03;;;;;;;21.40;3.53;;;7.90;99.90;;;;;;5035853;28;20467;-72
2022/01/06 12:40:37;;;;;;;26.55;3.67;;;7.70;99.90;;;;;;5019337;28;20033;-71
2022/01/06 12:43:23;;;;;;;16.75;3.15;;;7.70;99.90;;;;;;5035608;28;20467;-72
2022/01/06 12:46:16;;;;;;;15.88;3.75;;;7.60;99.90;;;;;;5020491;28;20049;-73
2022/01/06 12:48:44;;;;;;;14.65;3.05;;;7.60;99.90;;;;;;5024376;28;20095;-72
2022/01/06 12:51:16;;;;;;;21.90;3.97;;;7.80;99.90;;;;;;5035822;28;20352;-72
2022/01/06 12:53:44;;;;;;;19.52;3.20;;;8.00;99.90;;;;;;5035691;28;20076;-72
2022/01/06 12:56:22;;;;;;;19.85;3.13;;;8.30;99.90;;;;;;5035693;28;20076;-72